Akhisar, Turkey
Current Conditions -  °F | °C
As of 10:50 PM on Friday 31 Oct 2014 (Local Time) from LTBZ Reporting Station
Broken Clouds Broken Clouds  
Wind Chill: 38°   Ceiling: 2500
Heat Index: 45°   Visibility: 6mi
Dew Point: 41°   Wind: 13mph
Humidity: 87%   Direction: 350°N
Pressure: 30.03"   Gusts: 24mph
Location:  38.93°N, 27.83°E
Report Text: LTBZ 311950Z 35011G21KT 310V030 9999 SCT011 BKN025 07/05 Q1017
Loading
Personal Weather Stations






























Interactive Weather Map
Tropical Storm Tracking
New forecast layout! Learn more

10-Day Weather Forecast

Advertisements
Track Severe Weather on mobile